Time,TemperatureF,DewpointF,PressureIn,WindDirection,WindDirectionDegrees,WindSpeedMPH,WindSpeedGustMPH,Humidity,HourlyPrecipIn,Conditions,Clouds,dailyrainin,SoftwareType,DateUTC
2013-02-17 01:21:00,38.0,18.0,29.99,North,0,0.0,1.0,43,0.01,,,-99.99,,2013-02-17 09:21:00,
2013-02-17 01:31:00,38.0,18.0,29.99,North,0,0.0,1.0,43,0.01,,,-99.99,,2013-02-17 09:31:00,
2013-02-17 01:41:00,38.0,18.0,29.99,North,0,0.0,1.0,43,0.01,,,-99.99,,2013-02-17 09:41:00,
2013-02-17 01:51:00,38.0,18.0,29.99,North,0,0.0,1.0,43,0.01,,,-99.99,,2013-02-17 09:51:00,
2013-02-17 02:21:00,39.0,18.0,29.97,SSE,160,1.0,2.0,43,0.00,,,-99.99,,2013-02-17 10:21:00,
2013-02-17 02:31:00,39.0,18.0,29.97,SSE,160,1.0,2.0,43,0.00,,,-99.99,,2013-02-17 10:31:00,
2013-02-17 02:41:00,39.0,18.0,29.97,SSE,160,1.0,2.0,43,0.00,,,-99.99,,2013-02-17 10:41:00,
2013-02-17 02:51:00,39.0,18.0,29.97,SSE,160,1.0,2.0,43,0.00,,,-99.99,,2013-02-17 10:51:00,
2013-02-17 03:21:00,38.0,19.0,29.95,SSE,160,1.0,1.0,45,0.00,,,-99.99,,2013-02-17 11:21:00,
2013-02-17 03:32:00,38.0,19.0,29.95,SSE,160,1.0,1.0,45,0.00,,,-99.99,,2013-02-17 11:32:00,
2013-02-17 03:41:00,38.0,19.0,29.95,SSE,160,1.0,1.0,45,0.00,,,-99.99,,2013-02-17 11:41:00,
2013-02-17 03:52:00,38.0,19.0,29.95,SSE,160,1.0,1.0,45,0.00,,,-99.99,,2013-02-17 11:52:00,
2013-02-17 04:22:00,37.0,17.0,29.93,North,0,0.0,2.0,43,0.00,,,-99.99,,2013-02-17 12:22:00,
2013-02-17 04:32:00,37.0,17.0,29.93,North,0,0.0,2.0,43,0.00,,,-99.99,,2013-02-17 12:32:00,
2013-02-17 04:42:00,37.0,17.0,29.93,North,0,0.0,2.0,43,0.00,,,-99.99,,2013-02-17 12:42:00,
2013-02-17 04:52:00,37.0,17.0,29.93,North,0,0.0,2.0,43,0.00,,,-99.99,,2013-02-17 12:52:00,
2013-02-17 05:21:00,37.0,16.0,29.92,North,0,0.0,1.0,42,0.00,,,-99.99,,2013-02-17 13:21:00,
2013-02-17 05:32:00,37.0,16.0,29.92,North,0,0.0,1.0,42,0.00,,,-99.99,,2013-02-17 13:32:00,
2013-02-17 05:41:00,37.0,16.0,29.92,North,0,0.0,1.0,42,0.00,,,-99.99,,2013-02-17 13:41:00,
2013-02-17 05:51:00,37.0,16.0,29.92,North,0,0.0,1.0,42,0.00,,,-99.99,,2013-02-17 13:51:00,
2013-02-17 06:21:00,36.0,16.0,29.93,North,0,0.0,2.0,43,0.00,,,-99.99,,2013-02-17 14:21:00,
2013-02-17 06:32:00,36.0,16.0,29.93,North,0,0.0,2.0,43,0.00,,,-99.99,,2013-02-17 14:32:00,
2013-02-17 06:42:00,36.0,16.0,29.93,North,0,0.0,2.0,43,0.00,,,-99.99,,2013-02-17 14:42:00,
2013-02-17 06:52:00,36.0,16.0,29.93,North,0,0.0,2.0,43,0.00,,,-99.99,,2013-02-17 14:52:00,
2013-02-17 07:21:00,34.0,15.0,29.93,North,0,0.0,2.0,46,0.00,,,-99.99,,2013-02-17 15:21:00,
2013-02-17 07:31:00,34.0,15.0,29.93,North,0,0.0,2.0,46,0.00,,,-99.99,,2013-02-17 15:31:00,
2013-02-17 07:41:00,34.0,15.0,29.93,North,0,0.0,2.0,46,0.00,,,-99.99,,2013-02-17 15:41:00,
2013-02-17 07:52:00,34.0,15.0,29.93,North,0,0.0,2.0,46,0.00,,,-99.99,,2013-02-17 15:52:00,
2013-02-17 08:21:00,35.0,16.0,29.93,SSE,160,2.0,2.0,46,0.00,,,-99.99,,2013-02-17 16:21:00,
2013-02-17 08:31:00,35.0,16.0,29.93,SSE,160,2.0,2.0,46,0.00,,,-99.99,,2013-02-17 16:31:00,
2013-02-17 08:41:00,35.0,16.0,29.93,SSE,160,2.0,2.0,46,0.00,,,-99.99,,2013-02-17 16:41:00,
2013-02-17 08:51:00,35.0,16.0,29.93,SSE,160,2.0,2.0,46,0.00,,,-99.99,,2013-02-17 16:51:00,
2013-02-17 09:21:00,39.0,18.0,29.93,North,0,0.0,2.0,42,0.00,,,-99.99,,2013-02-17 17:21:00,
2013-02-17 09:32:00,39.0,18.0,29.93,North,0,0.0,2.0,42,0.00,,,-99.99,,2013-02-17 17:32:00,
2013-02-17 10:22:00,46.0,16.0,29.93,North,0,0.0,3.0,29,0.00,,,-99.99,,2013-02-17 18:22:00,
2013-02-17 10:33:00,46.0,16.0,29.93,North,0,0.0,3.0,29,0.00,,,-99.99,,2013-02-17 18:33:00,
2013-02-17 10:42:00,46.0,16.0,29.93,North,0,0.0,3.0,29,0.00,,,-99.99,,2013-02-17 18:42:00,
2013-02-17 10:52:00,46.0,16.0,29.93,North,0,0.0,3.0,29,0.00,,,-99.99,,2013-02-17 18:52:00,
2013-02-17 11:21:00,49.0,17.0,29.93,North,0,0.0,5.0,28,0.00,,,-99.99,,2013-02-17 19:21:00,
2013-02-17 11:32:00,49.0,17.0,29.93,North,0,0.0,5.0,28,0.00,,,-99.99,,2013-02-17 19:32:00,
2013-02-17 11:41:00,49.0,17.0,29.93,North,0,0.0,5.0,28,0.00,,,-99.99,,2013-02-17 19:41:00,
2013-02-17 11:51:00,49.0,17.0,29.93,North,0,0.0,5.0,28,0.00,,,-99.99,,2013-02-17 19:51:00,
2013-02-17 12:21:00,49.0,17.0,29.91,SSE,160,2.0,4.0,28,0.00,,,-99.99,,2013-02-17 20:21:00,
2013-02-17 12:32:00,49.0,17.0,29.91,SSE,160,2.0,4.0,28,0.00,,,-99.99,,2013-02-17 20:32:00,
2013-02-17 12:42:00,49.0,17.0,29.91,SSE,160,2.0,4.0,28,0.00,,,-99.99,,2013-02-17 20:42:00,
2013-02-17 12:52:00,49.0,17.0,29.91,SSE,160,2.0,4.0,28,0.00,,,-99.99,,2013-02-17 20:52:00,
2013-02-17 13:21:00,51.0,22.0,29.89,South,190,3.0,4.0,32,0.00,,,-99.99,,2013-02-17 21:21:00,
2013-02-17 13:31:00,51.0,22.0,29.89,South,190,3.0,4.0,32,0.00,,,-99.99,,2013-02-17 21:31:00,
2013-02-17 13:41:00,51.0,22.0,29.89,South,190,3.0,4.0,32,0.00,,,-99.99,,2013-02-17 21:41:00,
2013-02-17 13:52:00,51.0,22.0,29.89,South,190,3.0,4.0,32,0.00,,,-99.99,,2013-02-17 21:52:00,
2013-02-17 14:21:00,51.0,21.0,29.89,SW,230,1.0,3.0,31,0.00,,,-99.99,,2013-02-17 22:21:00,
2013-02-17 14:32:00,51.0,21.0,29.89,SW,230,1.0,3.0,31,0.00,,,-99.99,,2013-02-17 22:32:00,
2013-02-17 14:41:00,51.0,21.0,29.89,SW,230,1.0,3.0,31,0.00,,,-99.99,,2013-02-17 22:41:00,
2013-02-17 14:52:00,51.0,21.0,29.89,SW,230,1.0,3.0,31,0.00,,,-99.99,,2013-02-17 22:52:00,
2013-02-17 15:21:00,50.0,23.0,29.90,North,350,2.0,4.0,34,0.00,,,-99.99,,2013-02-17 23:21:00,
2013-02-17 15:31:00,50.0,23.0,29.90,North,350,2.0,4.0,34,0.00,,,-99.99,,2013-02-17 23:31:00,
2013-02-17 15:42:00,50.0,23.0,29.90,North,350,2.0,4.0,34,0.00,,,-99.99,,2013-02-17 23:42:00,
2013-02-17 15:52:00,50.0,23.0,29.90,North,350,2.0,4.0,34,0.00,,,-99.99,,2013-02-17 23:52:00,
2013-02-17 16:22:00,48.0,22.0,29.90,North,0,0.0,4.0,35,0.00,,,-99.99,,2013-02-18 00:22:00,
2013-02-17 16:31:00,48.0,22.0,29.90,North,0,0.0,4.0,35,0.00,,,-99.99,,2013-02-18 00:31:00,
2013-02-17 16:41:00,48.0,22.0,29.90,North,0,0.0,4.0,35,0.00,,,-99.99,,2013-02-18 00:41:00,
2013-02-17 16:52:00,48.0,22.0,29.90,North,0,0.0,4.0,35,0.00,,,-99.99,,2013-02-18 00:52:00,
2013-02-17 17:21:00,45.0,24.0,29.91,North,0,0.0,4.0,43,0.00,,,-99.99,,2013-02-18 01:21:00,
2013-02-17 17:31:00,45.0,24.0,29.91,North,0,0.0,4.0,43,0.00,,,-99.99,,2013-02-18 01:31:00,
2013-02-17 17:41:00,45.0,24.0,29.91,North,0,0.0,4.0,43,0.00,,,-99.99,,2013-02-18 01:41:00,
2013-02-17 17:51:00,45.0,24.0,29.91,North,0,0.0,4.0,43,0.00,,,-99.99,,2013-02-18 01:51:00,
2013-02-17 18:21:00,38.0,25.0,29.93,North,0,0.0,4.0,60,0.00,,,-99.99,,2013-02-18 02:21:00,
2013-02-17 18:32:00,38.0,25.0,29.93,North,0,0.0,4.0,60,0.00,,,-99.99,,2013-02-18 02:32:00,
2013-02-17 18:41:00,38.0,25.0,29.93,North,0,0.0,4.0,60,0.00,,,-99.99,,2013-02-18 02:41:00,
2013-02-17 18:52:00,38.0,25.0,29.93,North,0,0.0,4.0,60,0.00,,,-99.99,,2013-02-18 02:52:00,
2013-02-17 19:21:00,35.0,24.0,29.93,North,0,0.0,4.0,63,0.00,,,-99.99,,2013-02-18 03:21:00,
2013-02-17 19:31:00,35.0,24.0,29.93,North,0,0.0,4.0,63,0.00,,,-99.99,,2013-02-18 03:31:00,
2013-02-17 19:42:00,35.0,24.0,29.93,North,0,0.0,4.0,63,0.00,,,-99.99,,2013-02-18 03:42:00,
2013-02-17 19:51:00,35.0,24.0,29.93,North,0,0.0,4.0,63,0.00,,,-99.99,,2013-02-18 03:51:00,
2013-02-17 20:21:00,34.0,22.0,29.94,North,0,0.0,4.0,61,0.00,,,-99.99,,2013-02-18 04:21:00,
2013-02-17 20:32:00,34.0,22.0,29.94,North,0,0.0,4.0,61,0.00,,,-99.99,,2013-02-18 04:32:00,
2013-02-17 20:41:00,34.0,22.0,29.94,North,0,0.0,4.0,61,0.00,,,-99.99,,2013-02-18 04:41:00,
2013-02-17 20:51:00,34.0,22.0,29.94,North,0,0.0,4.0,61,0.00,,,-99.99,,2013-02-18 04:51:00,
2013-02-17 21:21:00,34.0,21.0,29.96,North,0,0.0,4.0,59,0.00,,,-99.99,,2013-02-18 05:21:00,
2013-02-17 21:31:00,34.0,21.0,29.96,North,0,0.0,4.0,59,0.00,,,-99.99,,2013-02-18 05:31:00,
2013-02-17 21:41:00,34.0,21.0,29.96,North,0,0.0,4.0,59,0.00,,,-99.99,,2013-02-18 05:41:00,
2013-02-17 21:52:00,34.0,21.0,29.96,North,0,0.0,4.0,59,0.00,,,-99.99,,2013-02-18 05:52:00,
2013-02-17 22:21:00,34.0,21.0,29.98,North,0,0.0,4.0,58,0.00,,,-99.99,,2013-02-18 06:21:00,
2013-02-17 22:31:00,34.0,21.0,29.98,North,0,0.0,4.0,58,0.00,,,-99.99,,2013-02-18 06:31:00,
2013-02-17 22:41:00,34.0,21.0,29.98,North,0,0.0,4.0,58,0.00,,,-99.99,,2013-02-18 06:41:00,
2013-02-17 22:51:00,34.0,21.0,29.98,North,0,0.0,4.0,58,0.00,,,-99.99,,2013-02-18 06:51:00,
2013-02-17 23:21:00,34.0,20.0,29.97,North,0,0.0,4.0,55,0.00,,,-99.99,,2013-02-18 07:21:00,
2013-02-17 23:32:00,34.0,20.0,29.97,North,0,0.0,4.0,55,0.00,,,-99.99,,2013-02-18 07:32:00,